sensor_id;sensor_type;location;lat;lon;timestamp;temperature;humidity
36586;DHT22;22591;48.314;11.562;2023-03-23T00:01:47;9.50;92.20
36586;DHT22;22591;48.314;11.562;2023-03-23T00:04:15;9.50;92.30
36586;DHT22;22591;48.314;11.562;2023-03-23T00:06:41;9.50;92.30
36586;DHT22;22591;48.314;11.562;2023-03-23T00:09:09;9.60;92.20
36586;DHT22;22591;48.314;11.562;2023-03-23T00:11:35;9.60;92.30
36586;DHT22;22591;48.314;11.562;2023-03-23T00:14:01;9.60;92.30
36586;DHT22;22591;48.314;11.562;2023-03-23T00:16:29;9.60;92.30
36586;DHT22;22591;48.314;11.562;2023-03-23T00:18:59;9.70;92.30
36586;DHT22;22591;48.314;11.562;2023-03-23T00:21:31;9.70;92.20
36586;DHT22;22591;48.314;11.562;2023-03-23T00:26:26;9.70;92.40
36586;DHT22;22591;48.314;11.562;2023-03-23T00:28:55;9.80;92.30
36586;DHT22;22591;48.314;11.562;2023-03-23T00:31:20;9.80;92.30
36586;DHT22;22591;48.314;11.562;2023-03-23T00:33:46;9.80;92.40
36586;DHT22;22591;48.314;11.562;2023-03-23T00:36:13;9.80;92.40
36586;DHT22;22591;48.314;11.562;2023-03-23T00:38:39;9.80;92.30
36586;DHT22;22591;48.314;11.562;2023-03-23T00:41:06;9.80;92.40
36586;DHT22;22591;48.314;11.562;2023-03-23T00:43:32;9.80;92.40
36586;DHT22;22591;48.314;11.562;2023-03-23T00:46:02;9.70;92.30
36586;DHT22;22591;48.314;11.562;2023-03-23T00:48:34;9.60;92.40
36586;DHT22;22591;48.314;11.562;2023-03-23T00:51:01;9.60;92.50
36586;DHT22;22591;48.314;11.562;2023-03-23T00:53:32;9.60;92.70
36586;DHT22;22591;48.314;11.562;2023-03-23T00:55:58;9.60;92.80
36586;DHT22;22591;48.314;11.562;2023-03-23T00:58:23;9.60;92.90
36586;DHT22;22591;48.314;11.562;2023-03-23T01:00:49;9.60;92.90
36586;DHT22;22591;48.314;11.562;2023-03-23T01:03:14;9.60;92.90
36586;DHT22;22591;48.314;11.562;2023-03-23T01:05:43;9.60;92.90
36586;DHT22;22591;48.314;11.562;2023-03-23T01:08:12;9.60;93.00
36586;DHT22;22591;48.314;11.562;2023-03-23T01:10:38;9.50;93.10
36586;DHT22;22591;48.314;11.562;2023-03-23T01:13:05;9.50;93.20
36586;DHT22;22591;48.314;11.562;2023-03-23T01:15:31;9.40;93.30
36586;DHT22;22591;48.314;11.562;2023-03-23T01:17:57;9.30;93.40
36586;DHT22;22591;48.314;11.562;2023-03-23T01:20:23;9.20;93.60
36586;DHT22;22591;48.314;11.562;2023-03-23T01:22:49;9.20;93.70
36586;DHT22;22591;48.314;11.562;2023-03-23T01:25:15;9.10;93.80
36586;DHT22;22591;48.314;11.562;2023-03-23T01:27:41;9.10;93.90
36586;DHT22;22591;48.314;11.562;2023-03-23T01:30:08;9.10;94.00
36586;DHT22;22591;48.314;11.562;2023-03-23T01:32:35;9.00;94.00
36586;DHT22;22591;48.314;11.562;2023-03-23T01:35:01;9.00;94.00
36586;DHT22;22591;48.314;11.562;2023-03-23T01:37:26;9.00;94.30
36586;DHT22;22591;48.314;11.562;2023-03-23T01:39:53;9.00;94.10
36586;DHT22;22591;48.314;11.562;2023-03-23T01:42:30;9.00;94.10
36586;DHT22;22591;48.314;11.562;2023-03-23T01:47:50;8.90;94.40
36586;DHT22;22591;48.314;11.562;2023-03-23T01:50:18;8.90;94.60
36586;DHT22;22591;48.314;11.562;2023-03-23T01:52:45;9.00;94.60
36586;DHT22;22591;48.314;11.562;2023-03-23T01:55:11;9.00;95.00
36586;DHT22;22591;48.314;11.562;2023-03-23T01:57:37;9.00;94.70
36586;DHT22;22591;48.314;11.562;2023-03-23T02:00:07;9.00;94.90
36586;DHT22;22591;48.314;11.562;2023-03-23T02:02:36;8.90;95.10
36586;DHT22;22591;48.314;11.562;2023-03-23T02:05:10;8.90;95.30
36586;DHT22;22591;48.314;11.562;2023-03-23T02:07:37;8.70;95.60
36586;DHT22;22591;48.314;11.562;2023-03-23T02:10:03;8.60;95.70
36586;DHT22;22591;48.314;11.562;2023-03-23T02:12:29;8.50;96.10
36586;DHT22;22591;48.314;11.562;2023-03-23T02:14:54;8.50;96.30
36586;DHT22;22591;48.314;11.562;2023-03-23T02:17:32;8.40;96.40
36586;DHT22;22591;48.314;11.562;2023-03-23T02:20:30;8.40;96.70
36586;DHT22;22591;48.314;11.562;2023-03-23T02:25:58;8.50;97.00
36586;DHT22;22591;48.314;11.562;2023-03-23T02:28:41;8.60;96.90
36586;DHT22;22591;48.314;11.562;2023-03-23T02:34:07;8.70;96.70
36586;DHT22;22591;48.314;11.562;2023-03-23T02:36:42;8.80;96.60
36586;DHT22;22591;48.314;11.562;2023-03-23T02:39:26;8.80;96.60
36586;DHT22;22591;48.314;11.562;2023-03-23T02:41:59;8.80;96.70
36586;DHT22;22591;48.314;11.562;2023-03-23T02:44:28;8.80;96.80
36586;DHT22;22591;48.314;11.562;2023-03-23T02:46:57;8.80;96.90
36586;DHT22;22591;48.314;11.562;2023-03-23T02:49:25;8.80;96.90
36586;DHT22;22591;48.314;11.562;2023-03-23T02:51:53;8.80;97.00
36586;DHT22;22591;48.314;11.562;2023-03-23T02:54:20;8.80;97.10
36586;DHT22;22591;48.314;11.562;2023-03-23T02:56:48;8.80;97.40
36586;DHT22;22591;48.314;11.562;2023-03-23T02:59:16;8.70;97.70
36586;DHT22;22591;48.314;11.562;2023-03-23T03:04:11;8.60;97.70
36586;DHT22;22591;48.314;11.562;2023-03-23T03:12:04;8.60;98.00
36586;DHT22;22591;48.314;11.562;2023-03-23T03:14:46;8.60;98.10
36586;DHT22;22591;48.314;11.562;2023-03-23T03:17:25;8.60;98.20
36586;DHT22;22591;48.314;11.562;2023-03-23T03:19:59;8.60;98.10
36586;DHT22;22591;48.314;11.562;2023-03-23T03:22:32;8.70;98.30
36586;DHT22;22591;48.314;11.562;2023-03-23T03:25:00;8.70;98.40
36586;DHT22;22591;48.314;11.562;2023-03-23T03:27:27;8.70;98.30
36586;DHT22;22591;48.314;11.562;2023-03-23T03:29:56;8.80;98.50
36586;DHT22;22591;48.314;11.562;2023-03-23T03:32:41;8.80;98.60
36586;DHT22;22591;48.314;11.562;2023-03-23T03:35:09;9.00;98.30
36586;DHT22;22591;48.314;11.562;2023-03-23T03:37:37;9.00;98.00
36586;DHT22;22591;48.314;11.562;2023-03-23T03:40:05;9.10;97.90
36586;DHT22;22591;48.314;11.562;2023-03-23T03:42:37;9.10;97.90
36586;DHT22;22591;48.314;11.562;2023-03-23T03:45:03;9.10;98.00
36586;DHT22;22591;48.314;11.562;2023-03-23T03:47:28;9.10;98.10
36586;DHT22;22591;48.314;11.562;2023-03-23T03:49:54;9.00;98.40
36586;DHT22;22591;48.314;11.562;2023-03-23T03:52:19;8.90;98.70
36586;DHT22;22591;48.314;11.562;2023-03-23T03:54:45;8.90;98.80
36586;DHT22;22591;48.314;11.562;2023-03-23T03:57:11;9.00;98.70
36586;DHT22;22591;48.314;11.562;2023-03-23T03:59:37;9.00;98.60
36586;DHT22;22591;48.314;11.562;2023-03-23T04:02:02;9.00;98.70
36586;DHT22;22591;48.314;11.562;2023-03-23T04:04:29;9.10;98.80
36586;DHT22;22591;48.314;11.562;2023-03-23T04:06:54;9.10;98.80
36586;DHT22;22591;48.314;11.562;2023-03-23T04:09:20;9.20;98.70
36586;DHT22;22591;48.314;11.562;2023-03-23T04:11:46;9.30;98.60
36586;DHT22;22591;48.314;11.562;2023-03-23T04:14:12;9.30;98.30
36586;DHT22;22591;48.314;11.562;2023-03-23T04:16:38;9.40;98.10
36586;DHT22;22591;48.314;11.562;2023-03-23T04:19:03;9.40;98.10
36586;DHT22;22591;48.314;11.562;2023-03-23T04:21:29;9.40;98.00
36586;DHT22;22591;48.314;11.562;2023-03-23T04:23:58;9.40;97.90
36586;DHT22;22591;48.314;11.562;2023-03-23T04:26:28;9.40;98.00
36586;DHT22;22591;48.314;11.562;2023-03-23T04:28:55;9.40;98.00
36586;DHT22;22591;48.314;11.562;2023-03-23T04:31:21;9.40;98.00
36586;DHT22;22591;48.314;11.562;2023-03-23T04:33:50;9.40;98.10
36586;DHT22;22591;48.314;11.562;2023-03-23T04:36:18;9.40;98.10
36586;DHT22;22591;48.314;11.562;2023-03-23T04:38:43;9.40;98.10
36586;DHT22;22591;48.314;11.562;2023-03-23T04:41:09;9.40;98.10
36586;DHT22;22591;48.314;11.562;2023-03-23T04:43:35;9.40;98.20
36586;DHT22;22591;48.314;11.562;2023-03-23T04:46:06;9.40;98.20
36586;DHT22;22591;48.314;11.562;2023-03-23T04:48:34;9.40;98.40
36586;DHT22;22591;48.314;11.562;2023-03-23T04:51:03;9.40;98.40
36586;DHT22;22591;48.314;11.562;2023-03-23T04:53:30;9.40;98.40
36586;DHT22;22591;48.314;11.562;2023-03-23T04:55:56;9.40;98.40
36586;DHT22;22591;48.314;11.562;2023-03-23T04:58:22;9.40;98.60
36586;DHT22;22591;48.314;11.562;2023-03-23T05:00:50;9.30;98.70
36586;DHT22;22591;48.314;11.562;2023-03-23T05:03:17;9.30;98.90
36586;DHT22;22591;48.314;11.562;2023-03-23T05:05:44;9.30;99.10
36586;DHT22;22591;48.314;11.562;2023-03-23T05:08:13;9.30;99.30
36586;DHT22;22591;48.314;11.562;2023-03-23T05:10:39;9.20;99.30
36586;DHT22;22591;48.314;11.562;2023-03-23T05:13:04;9.20;99.30
36586;DHT22;22591;48.314;11.562;2023-03-23T05:15:30;9.30;99.30
36586;DHT22;22591;48.314;11.562;2023-03-23T05:17:56;9.20;99.30
36586;DHT22;22591;48.314;11.562;2023-03-23T05:20:22;9.20;99.30
36586;DHT22;22591;48.314;11.562;2023-03-23T05:22:48;9.30;99.40
36586;DHT22;22591;48.314;11.562;2023-03-23T05:25:15;9.30;99.50
36586;DHT22;22591;48.314;11.562;2023-03-23T05:27:40;9.30;99.60
36586;DHT22;22591;48.314;11.562;2023-03-23T05:30:13;9.40;99.50
36586;DHT22;22591;48.314;11.562;2023-03-23T05:32:42;9.50;99.30
36586;DHT22;22591;48.314;11.562;2023-03-23T05:35:08;9.50;99.20
36586;DHT22;22591;48.314;11.562;2023-03-23T05:37:33;9.60;99.20
36586;DHT22;22591;48.314;11.562;2023-03-23T05:39:59;9.60;99.20
36586;DHT22;22591;48.314;11.562;2023-03-23T05:42:30;9.60;99.40
36586;DHT22;22591;48.314;11.562;2023-03-23T05:44:56;9.50;99.50
36586;DHT22;22591;48.314;11.562;2023-03-23T05:47:22;9.50;99.60
36586;DHT22;22591;48.314;11.562;2023-03-23T05:49:47;9.40;99.90
36586;DHT22;22591;48.314;11.562;2023-03-23T05:52:13;9.40;99.90
36586;DHT22;22591;48.314;11.562;2023-03-23T05:54:38;9.40;99.90
36586;DHT22;22591;48.314;11.562;2023-03-23T05:57:04;9.40;99.90
36586;DHT22;22591;48.314;11.562;2023-03-23T05:59:30;9.50;99.90
36586;DHT22;22591;48.314;11.562;2023-03-23T06:01:56;9.60;99.90
36586;DHT22;22591;48.314;11.562;2023-03-23T06:04:22;9.60;99.90
36586;DHT22;22591;48.314;11.562;2023-03-23T06:06:50;9.70;99.90
36586;DHT22;22591;48.314;11.562;2023-03-23T06:09:17;9.70;99.90
36586;DHT22;22591;48.314;11.562;2023-03-23T06:11:43;9.80;99.90
36586;DHT22;22591;48.314;11.562;2023-03-23T06:14:08;9.90;99.90
36586;DHT22;22591;48.314;11.562;2023-03-23T06:16:34;10.00;99.60
36586;DHT22;22591;48.314;11.562;2023-03-23T06:19:00;10.10;99.50
36586;DHT22;22591;48.314;11.562;2023-03-23T06:21:26;10.20;99.30
36586;DHT22;22591;48.314;11.562;2023-03-23T06:23:52;10.30;99.20
36586;DHT22;22591;48.314;11.562;2023-03-23T06:26:18;10.40;99.00
36586;DHT22;22591;48.314;11.562;2023-03-23T06:28:45;10.60;98.80
36586;DHT22;22591;48.314;11.562;2023-03-23T06:31:10;10.80;98.60
36586;DHT22;22591;48.314;11.562;2023-03-23T06:33:37;10.80;98.30
36586;DHT22;22591;48.314;11.562;2023-03-23T06:36:03;10.90;98.20
36586;DHT22;22591;48.314;11.562;2023-03-23T06:38:30;11.00;98.20
36586;DHT22;22591;48.314;11.562;2023-03-23T06:40:56;11.00;97.80
36586;DHT22;22591;48.314;11.562;2023-03-23T06:43:22;11.10;97.80
36586;DHT22;22591;48.314;11.562;2023-03-23T06:45:49;11.10;97.70
36586;DHT22;22591;48.314;11.562;2023-03-23T06:48:15;11.20;97.60
36586;DHT22;22591;48.314;11.562;2023-03-23T06:50:45;11.30;97.50
36586;DHT22;22591;48.314;11.562;2023-03-23T06:53:11;11.50;97.60
36586;DHT22;22591;48.314;11.562;2023-03-23T06:55:37;11.60;97.30
36586;DHT22;22591;48.314;11.562;2023-03-23T06:58:04;11.80;97.10
36586;DHT22;22591;48.314;11.562;2023-03-23T07:00:31;12.00;96.70
36586;DHT22;22591;48.314;11.562;2023-03-23T07:02:56;12.00;96.80
36586;DHT22;22591;48.314;11.562;2023-03-23T07:05:22;12.20;96.70
36586;DHT22;22591;48.314;11.562;2023-03-23T07:07:48;12.30;96.20
36586;DHT22;22591;48.314;11.562;2023-03-23T07:10:13;12.60;95.90
36586;DHT22;22591;48.314;11.562;2023-03-23T07:12:39;12.90;95.50
36586;DHT22;22591;48.314;11.562;2023-03-23T07:15:07;13.10;95.20
36586;DHT22;22591;48.314;11.562;2023-03-23T07:17:35;13.50;94.90
36586;DHT22;22591;48.314;11.562;2023-03-23T07:20:01;13.70;93.80
36586;DHT22;22591;48.314;11.562;2023-03-23T07:22:27;13.80;93.80
36586;DHT22;22591;48.314;11.562;2023-03-23T07:24:53;13.90;94.20
36586;DHT22;22591;48.314;11.562;2023-03-23T07:27:18;14.00;94.10
36586;DHT22;22591;48.314;11.562;2023-03-23T07:29:44;14.10;93.70
36586;DHT22;22591;48.314;11.562;2023-03-23T07:32:11;14.20;93.60
36586;DHT22;22591;48.314;11.562;2023-03-23T07:34:37;14.30;93.40
36586;DHT22;22591;48.314;11.562;2023-03-23T07:37:04;14.40;93.00
36586;DHT22;22591;48.314;11.562;2023-03-23T07:39:30;14.50;92.90
36586;DHT22;22591;48.314;11.562;2023-03-23T07:41:56;14.90;92.90
36586;DHT22;22591;48.314;11.562;2023-03-23T07:44:22;15.00;92.10
36586;DHT22;22591;48.314;11.562;2023-03-23T07:46:48;14.90;91.90
36586;DHT22;22591;48.314;11.562;2023-03-23T07:49:14;14.90;91.80
36586;DHT22;22591;48.314;11.562;2023-03-23T07:51:40;15.30;92.00
36586;DHT22;22591;48.314;11.562;2023-03-23T07:54:06;15.40;91.10
36586;DHT22;22591;48.314;11.562;2023-03-23T07:56:33;15.30;91.40
36586;DHT22;22591;48.314;11.562;2023-03-23T07:58:59;15.20;91.20
36586;DHT22;22591;48.314;11.562;2023-03-23T08:01:26;15.20;91.30
36586;DHT22;22591;48.314;11.562;2023-03-23T08:03:52;15.30;91.20
36586;DHT22;22591;48.314;11.562;2023-03-23T08:06:20;15.50;90.80
36586;DHT22;22591;48.314;11.562;2023-03-23T08:08:46;15.50;90.50
36586;DHT22;22591;48.314;11.562;2023-03-23T08:11:12;15.60;90.40
36586;DHT22;22591;48.314;11.562;2023-03-23T08:13:40;15.80;90.40
36586;DHT22;22591;48.314;11.562;2023-03-23T08:16:07;16.00;90.30
36586;DHT22;22591;48.314;11.562;2023-03-23T08:18:35;16.10;90.10
36586;DHT22;22591;48.314;11.562;2023-03-23T08:21:01;16.20;89.40
36586;DHT22;22591;48.314;11.562;2023-03-23T08:23:26;16.30;89.30
36586;DHT22;22591;48.314;11.562;2023-03-23T08:25:52;16.30;88.30
36586;DHT22;22591;48.314;11.562;2023-03-23T08:28:18;16.40;88.10
36586;DHT22;22591;48.314;11.562;2023-03-23T08:30:44;16.50;87.60
36586;DHT22;22591;48.314;11.562;2023-03-23T08:33:10;16.70;87.20
36586;DHT22;22591;48.314;11.562;2023-03-23T08:35:36;16.90;86.20
36586;DHT22;22591;48.314;11.562;2023-03-23T08:38:02;17.10;84.30
36586;DHT22;22591;48.314;11.562;2023-03-23T08:40:28;17.00;83.20
36586;DHT22;22591;48.314;11.562;2023-03-23T08:42:55;17.10;83.00
36586;DHT22;22591;48.314;11.562;2023-03-23T08:45:23;17.30;83.90
36586;DHT22;22591;48.314;11.562;2023-03-23T08:47:49;17.60;82.80
36586;DHT22;22591;48.314;11.562;2023-03-23T08:50:19;17.70;81.20
36586;DHT22;22591;48.314;11.562;2023-03-23T08:52:45;17.70;81.10
36586;DHT22;22591;48.314;11.562;2023-03-23T08:55:11;17.80;81.20
36586;DHT22;22591;48.314;11.562;2023-03-23T08:57:38;18.00;80.20
36586;DHT22;22591;48.314;11.562;2023-03-23T09:00:06;18.10;80.10
36586;DHT22;22591;48.314;11.562;2023-03-23T09:02:41;18.20;79.40
36586;DHT22;22591;48.314;11.562;2023-03-23T09:05:08;18.60;78.20
36586;DHT22;22591;48.314;11.562;2023-03-23T09:07:39;18.70;76.10
36586;DHT22;22591;48.314;11.562;2023-03-23T09:10:06;18.80;76.50
36586;DHT22;22591;48.314;11.562;2023-03-23T09:12:32;19.00;75.00
36586;DHT22;22591;48.314;11.562;2023-03-23T09:14:57;19.40;75.00
36586;DHT22;22591;48.314;11.562;2023-03-23T09:17:23;19.70;74.50
36586;DHT22;22591;48.314;11.562;2023-03-23T09:19:48;19.90;72.30
36586;DHT22;22591;48.314;11.562;2023-03-23T09:22:14;20.20;71.50
36586;DHT22;22591;48.314;11.562;2023-03-23T09:24:41;20.20;71.80
36586;DHT22;22591;48.314;11.562;2023-03-23T09:27:07;20.30;70.40
36586;DHT22;22591;48.314;11.562;2023-03-23T09:29:32;20.10;70.00
36586;DHT22;22591;48.314;11.562;2023-03-23T09:31:58;19.90;70.70
36586;DHT22;22591;48.314;11.562;2023-03-23T09:34:23;19.70;71.20
36586;DHT22;22591;48.314;11.562;2023-03-23T09:36:49;19.70;71.40
36586;DHT22;22591;48.314;11.562;2023-03-23T09:39:15;19.80;71.30
36586;DHT22;22591;48.314;11.562;2023-03-23T09:41:48;19.90;70.30
36586;DHT22;22591;48.314;11.562;2023-03-23T09:50:02;20.30;70.10
36586;DHT22;22591;48.314;11.562;2023-03-23T09:55:26;20.60;69.20
36586;DHT22;22591;48.314;11.562;2023-03-23T09:58:02;20.70;69.00
36586;DHT22;22591;48.314;11.562;2023-03-23T10:00:37;20.70;69.00
36586;DHT22;22591;48.314;11.562;2023-03-23T10:03:17;20.70;67.60
36586;DHT22;22591;48.314;11.562;2023-03-23T10:05:48;20.50;67.60
36586;DHT22;22591;48.314;11.562;2023-03-23T10:08:20;20.50;67.00
36586;DHT22;22591;48.314;11.562;2023-03-23T10:13:38;20.40;66.20
36586;DHT22;22591;48.314;11.562;2023-03-23T10:16:10;20.10;66.80
36586;DHT22;22591;48.314;11.562;2023-03-23T10:21:21;19.90;66.90
36586;DHT22;22591;48.314;11.562;2023-03-23T10:31:38;19.70;66.00
36586;DHT22;22591;48.314;11.562;2023-03-23T10:34:17;19.60;66.80
36586;DHT22;22591;48.314;11.562;2023-03-23T10:37:04;19.50;67.70
36586;DHT22;22591;48.314;11.562;2023-03-23T10:39:41;19.60;67.80
36586;DHT22;22591;48.314;11.562;2023-03-23T10:42:09;19.50;67.20
36586;DHT22;22591;48.314;11.562;2023-03-23T10:44:34;19.70;67.00
36586;DHT22;22591;48.314;11.562;2023-03-23T10:47:06;19.90;66.70
36586;DHT22;22591;48.314;11.562;2023-03-23T10:54:55;19.80;67.60
36586;DHT22;22591;48.314;11.562;2023-03-23T10:57:29;19.90;66.50
36586;DHT22;22591;48.314;11.562;2023-03-23T11:00:21;20.00;66.70
36586;DHT22;22591;48.314;11.562;2023-03-23T11:03:20;20.00;67.00
36586;DHT22;22591;48.314;11.562;2023-03-23T11:05:49;20.00;67.20
36586;DHT22;22591;48.314;11.562;2023-03-23T11:08:23;20.00;67.10
36586;DHT22;22591;48.314;11.562;2023-03-23T11:11:10;20.30;67.30
36586;DHT22;22591;48.314;11.562;2023-03-23T11:13:41;20.30;67.60
36586;DHT22;22591;48.314;11.562;2023-03-23T11:16:09;20.20;67.10
36586;DHT22;22591;48.314;11.562;2023-03-23T11:18:42;20.20;67.30
36586;DHT22;22591;48.314;11.562;2023-03-23T11:21:08;20.20;67.80
36586;DHT22;22591;48.314;11.562;2023-03-23T11:23:38;20.40;66.70
36586;DHT22;22591;48.314;11.562;2023-03-23T11:26:16;20.50;66.50
36586;DHT22;22591;48.314;11.562;2023-03-23T11:31:31;20.70;66.30
36586;DHT22;22591;48.314;11.562;2023-03-23T11:34:01;20.70;65.60
36586;DHT22;22591;48.314;11.562;2023-03-23T11:36:33;20.70;64.00
36586;DHT22;22591;48.314;11.562;2023-03-23T11:39:00;20.80;63.60
36586;DHT22;22591;48.314;11.562;2023-03-23T11:41:31;20.80;62.80
36586;DHT22;22591;48.314;11.562;2023-03-23T11:43:57;20.90;62.70
36586;DHT22;22591;48.314;11.562;2023-03-23T11:46:44;21.20;62.30
36586;DHT22;22591;48.314;11.562;2023-03-23T11:49:25;21.30;61.80
36586;DHT22;22591;48.314;11.562;2023-03-23T11:52:01;21.40;61.60
36586;DHT22;22591;48.314;11.562;2023-03-23T11:54:34;21.50;61.90
36586;DHT22;22591;48.314;11.562;2023-03-23T11:57:06;21.80;61.00
36586;DHT22;22591;48.314;11.562;2023-03-23T11:59:33;21.90;59.60
36586;DHT22;22591;48.314;11.562;2023-03-23T12:10:35;22.50;58.20
36586;DHT22;22591;48.314;11.562;2023-03-23T12:13:28;22.40;59.10
36586;DHT22;22591;48.314;11.562;2023-03-23T12:16:26;22.40;59.50
36586;DHT22;22591;48.314;11.562;2023-03-23T12:19:10;22.50;58.50
36586;DHT22;22591;48.314;11.562;2023-03-23T12:27:40;22.30;59.00
36586;DHT22;22591;48.314;11.562;2023-03-23T12:30:46;22.30;58.70
36586;DHT22;22591;48.314;11.562;2023-03-23T12:36:03;22.30;59.30
36586;DHT22;22591;48.314;11.562;2023-03-23T12:44:00;21.90;59.30
36586;DHT22;22591;48.314;11.562;2023-03-23T12:49:27;22.00;60.00
36586;DHT22;22591;48.314;11.562;2023-03-23T12:51:57;22.00;59.50
36586;DHT22;22591;48.314;11.562;2023-03-23T12:54:52;21.80;59.00
36586;DHT22;22591;48.314;11.562;2023-03-23T12:57:43;21.60;59.20
36586;DHT22;22591;48.314;11.562;2023-03-23T13:05:48;21.10;60.00
36586;DHT22;22591;48.314;11.562;2023-03-23T13:08:27;21.30;60.20
36586;DHT22;22591;48.314;11.562;2023-03-23T13:10:59;21.30;59.80
36586;DHT22;22591;48.314;11.562;2023-03-23T13:16:25;21.20;59.30
36586;DHT22;22591;48.314;11.562;2023-03-23T13:22:05;20.90;59.80
36586;DHT22;22591;48.314;11.562;2023-03-23T13:24:34;20.60;59.40
36586;DHT22;22591;48.314;11.562;2023-03-23T13:27:01;20.40;60.10
36586;DHT22;22591;48.314;11.562;2023-03-23T13:29:27;20.30;60.00
36586;DHT22;22591;48.314;11.562;2023-03-23T13:32:11;20.30;59.70
36586;DHT22;22591;48.314;11.562;2023-03-23T13:34:39;20.40;59.10
36586;DHT22;22591;48.314;11.562;2023-03-23T13:37:11;20.30;59.70
36586;DHT22;22591;48.314;11.562;2023-03-23T13:39:38;20.40;59.90
36586;DHT22;22591;48.314;11.562;2023-03-23T13:49:57;20.20;60.80
36586;DHT22;22591;48.314;11.562;2023-03-23T13:54:52;20.00;61.50
36586;DHT22;22591;48.314;11.562;2023-03-23T13:57:37;20.00;61.30
36586;DHT22;22591;48.314;11.562;2023-03-23T14:05:37;19.80;62.30
36586;DHT22;22591;48.314;11.562;2023-03-23T14:13:21;19.90;62.30
36586;DHT22;22591;48.314;11.562;2023-03-23T14:19:12;20.10;62.00
36586;DHT22;22591;48.314;11.562;2023-03-23T14:21:21;20.10;62.50
36586;DHT22;22591;48.314;11.562;2023-03-23T14:23:47;20.20;62.00
36586;DHT22;22591;48.314;11.562;2023-03-23T14:26:17;20.20;62.50
36586;DHT22;22591;48.314;11.562;2023-03-23T14:28:45;20.10;62.10
36586;DHT22;22591;48.314;11.562;2023-03-23T14:31:19;20.00;62.80
36586;DHT22;22591;48.314;11.562;2023-03-23T14:33:45;19.90;64.00
36586;DHT22;22591;48.314;11.562;2023-03-23T14:36:11;20.00;66.90
36586;DHT22;22591;48.314;11.562;2023-03-23T14:38:36;19.90;67.30
36586;DHT22;22591;48.314;11.562;2023-03-23T14:41:05;19.90;66.90
36586;DHT22;22591;48.314;11.562;2023-03-23T14:43:33;19.80;65.30
36586;DHT22;22591;48.314;11.562;2023-03-23T14:46:01;19.50;65.10
36586;DHT22;22591;48.314;11.562;2023-03-23T14:48:27;19.30;65.90
36586;DHT22;22591;48.314;11.562;2023-03-23T14:50:59;19.10;66.00
36586;DHT22;22591;48.314;11.562;2023-03-23T14:53:37;19.00;66.00
36586;DHT22;22591;48.314;11.562;2023-03-23T14:56:22;19.00;66.40
36586;DHT22;22591;48.314;11.562;2023-03-23T14:58:52;19.00;66.30
36586;DHT22;22591;48.314;11.562;2023-03-23T15:01:20;18.90;66.40
36586;DHT22;22591;48.314;11.562;2023-03-23T15:06:33;18.90;66.90
36586;DHT22;22591;48.314;11.562;2023-03-23T15:09:04;18.80;67.20
36586;DHT22;22591;48.314;11.562;2023-03-23T15:11:33;18.80;66.60
36586;DHT22;22591;48.314;11.562;2023-03-23T15:14:07;18.70;66.90
36586;DHT22;22591;48.314;11.562;2023-03-23T15:16:35;18.60;67.20
36586;DHT22;22591;48.314;11.562;2023-03-23T15:19:04;18.50;67.30
36586;DHT22;22591;48.314;11.562;2023-03-23T15:21:31;18.40;67.70
36586;DHT22;22591;48.314;11.562;2023-03-23T15:23:59;18.40;67.70
36586;DHT22;22591;48.314;11.562;2023-03-23T15:26:29;18.30;68.30
36586;DHT22;22591;48.314;11.562;2023-03-23T15:29:24;18.30;68.10
36586;DHT22;22591;48.314;11.562;2023-03-23T15:31:54;18.30;68.10
36586;DHT22;22591;48.314;11.562;2023-03-23T15:34:32;18.30;68.40
36586;DHT22;22591;48.314;11.562;2023-03-23T15:37:04;18.30;68.70
36586;DHT22;22591;48.314;11.562;2023-03-23T15:39:31;18.20;68.80
36586;DHT22;22591;48.314;11.562;2023-03-23T15:41:58;18.10;69.10
36586;DHT22;22591;48.314;11.562;2023-03-23T15:44:33;18.00;69.30
36586;DHT22;22591;48.314;11.562;2023-03-23T15:47:19;17.80;69.70
36586;DHT22;22591;48.314;11.562;2023-03-23T15:49:46;17.70;70.80
36586;DHT22;22591;48.314;11.562;2023-03-23T15:52:13;17.60;71.50
36586;DHT22;22591;48.314;11.562;2023-03-23T15:54:46;17.60;70.70
36586;DHT22;22591;48.314;11.562;2023-03-23T15:57:12;17.60;71.00
36586;DHT22;22591;48.314;11.562;2023-03-23T15:59:37;17.60;71.60
36586;DHT22;22591;48.314;11.562;2023-03-23T16:02:03;17.60;70.80
36586;DHT22;22591;48.314;11.562;2023-03-23T16:04:29;17.50;71.00
36586;DHT22;22591;48.314;11.562;2023-03-23T16:06:56;17.50;71.50
36586;DHT22;22591;48.314;11.562;2023-03-23T16:09:23;17.50;72.10
36586;DHT22;22591;48.314;11.562;2023-03-23T16:11:48;17.50;73.70
36586;DHT22;22591;48.314;11.562;2023-03-23T16:14:14;17.30;75.30
36586;DHT22;22591;48.314;11.562;2023-03-23T16:16:49;17.20;75.90
36586;DHT22;22591;48.314;11.562;2023-03-23T16:19:17;17.10;77.20
36586;DHT22;22591;48.314;11.562;2023-03-23T16:21:44;17.00;76.40
36586;DHT22;22591;48.314;11.562;2023-03-23T16:24:10;16.90;76.60
36586;DHT22;22591;48.314;11.562;2023-03-23T16:26:36;16.80;75.10
36586;DHT22;22591;48.314;11.562;2023-03-23T16:29:13;16.80;75.50
36586;DHT22;22591;48.314;11.562;2023-03-23T16:31:39;16.70;75.60
36586;DHT22;22591;48.314;11.562;2023-03-23T16:34:05;16.70;75.70
36586;DHT22;22591;48.314;11.562;2023-03-23T16:36:31;16.70;75.10
36586;DHT22;22591;48.314;11.562;2023-03-23T16:38:57;16.70;75.70
36586;DHT22;22591;48.314;11.562;2023-03-23T16:41:23;16.60;75.80
36586;DHT22;22591;48.314;11.562;2023-03-23T16:43:48;16.50;76.30
36586;DHT22;22591;48.314;11.562;2023-03-23T16:46:14;16.40;76.10
36586;DHT22;22591;48.314;11.562;2023-03-23T16:48:39;16.40;77.40
36586;DHT22;22591;48.314;11.562;2023-03-23T16:51:05;16.30;78.60
36586;DHT22;22591;48.314;11.562;2023-03-23T16:53:31;16.30;78.50
36586;DHT22;22591;48.314;11.562;2023-03-23T16:55:57;16.20;78.30
36586;DHT22;22591;48.314;11.562;2023-03-23T16:58:23;16.10;78.60
36586;DHT22;22591;48.314;11.562;2023-03-23T17:00:50;16.10;78.60
36586;DHT22;22591;48.314;11.562;2023-03-23T17:03:18;16.10;79.10
36586;DHT22;22591;48.314;11.562;2023-03-23T17:05:44;16.10;79.00
36586;DHT22;22591;48.314;11.562;2023-03-23T17:08:10;16.00;79.10
36586;DHT22;22591;48.314;11.562;2023-03-23T17:10:37;16.00;79.40
36586;DHT22;22591;48.314;11.562;2023-03-23T17:13:03;15.90;79.70
36586;DHT22;22591;48.314;11.562;2023-03-23T17:15:29;16.00;80.10
36586;DHT22;22591;48.314;11.562;2023-03-23T17:17:54;15.80;79.70
36586;DHT22;22591;48.314;11.562;2023-03-23T17:20:20;15.90;80.10
36586;DHT22;22591;48.314;11.562;2023-03-23T17:22:46;15.80;79.90
36586;DHT22;22591;48.314;11.562;2023-03-23T17:25:12;15.80;80.20
36586;DHT22;22591;48.314;11.562;2023-03-23T17:27:38;15.70;80.60